Αναφορές Αεροδρομίων

 

KSJC - San Jose, California, USA
Distance from station: ΒΑ 14km
Ενημερώθηκε: 23/01/2021 18:53
Σχεδόν νεφελώδης
Σχεδόν νεφελώδης
 Ανεμος από ΒΔ
Ανεμος: ΒΔ 7 km/h
Θερμοκρασία: 8°C
Wind Chill: 7°C
Σημείο Δρόσου: 5°C
Υγρασία: 82%
Βαρόμετρο: 1014.9 hPa
Clouds: Σχεδόν νεφελώδης
Visibility: 16 km
Cloud details: Few Clouds 152 m
Σχεδόν νεφελώδης 823 m
Σχεδόν νεφελώδης 4877 m
2021/01/23 16:53 KSJC 231653Z 32004KT 10SM FEW005 BKN027 BKN160 08/05 A2997 RMK AO2 SLP149 T00830050
KNUQ - Moffett Nas/Mtn, California, USA
Distance from station: Β 14km
Ενημερώθηκε: 23/01/2021 18:50
Συννεφιά
Συννεφιά
 Ανεμος από calm
Ανεμος: Απνοια
Θερμοκρασία: 8°C
Σημείο Δρόσου: 6°C
Υγρασία: 87%
Βαρόμετρο: 1015.2 hPa
Clouds: Συννεφιά
Visibility: 16 km
Cloud details: Συννεφιά 671 m
2021/01/23 16:50 KNUQ 231650Z AUTO 00000KT 10SM OVC022 08/06 A2998 RMK AO2
 
KPAO - Palo Alto, California, USA
Distance from station: ΒΒΔ 23km
Ενημερώθηκε: 23/01/2021 18:47
Σχεδόν νεφελώδης
Σχεδόν νεφελώδης
 Ανεμος από Β
Ανεμος: Β 13 km/h
Θερμοκρασία: 8°C
Wind Chill: 6°C
Σημείο Δρόσου: 6°C
Υγρασία: 87%
Βαρόμετρο: 1015.2 hPa
Clouds: Σχεδόν νεφελώδης
Visibility: 16 km
Cloud details: Σχεδόν νεφελώδης 762 m
2021/01/23 16:47 KPAO 231647Z 35007KT 10SM BKN025 08/06 A2998
KRHV - San Jose/Reid, California, USA
Distance from station: ΑΒΑ 19km
Ενημερώθηκε: 23/01/2021 18:50
Σχεδόν νεφελώδης
Σχεδόν νεφελώδης
 Ανεμος από calm
Ανεμος: Απνοια
Θερμοκρασία: 6°C
Σημείο Δρόσου: 4°C
Υγρασία: 87%
Βαρόμετρο: 1015.2 hPa
Clouds: Σχεδόν νεφελώδης
Visibility: 16 km
Cloud details: Few Clouds 244 m
Μερικώς νεφελώδης 610 m
Σχεδόν νεφελώδης 1219 m
2021/01/23 16:50 KRHV 231650Z 00000KT 10SM FEW008 SCT020 BKN040 06/04 A2998
 
KOAK - Oakland, California, USA
Distance from station: ΒΒΔ 50km
Ενημερώθηκε: 23/01/2021 18:53
Σχεδόν νεφελώδης
Σχεδόν νεφελώδης
 Ανεμος από ΑΒΑ
Ανεμος: ΑΒΑ 11 km/h
Θερμοκρασία: 11°C
Σημείο Δρόσου: 6°C
Υγρασία: 72%
Βαρόμετρο: 1015.6 hPa
Clouds: Σχεδόν νεφελώδης
Visibility: 16 km
Cloud details: Σχεδόν νεφελώδης 549 m
Σχεδόν νεφελώδης 6096 m
2021/01/23 16:53 KOAK 231653Z 06006KT 10SM BKN018 BKN200 11/06 A2999 RMK AO2 SLP156 T01110056
KSQL - San Carlos Airpo, California, USA
Distance from station: ΒΔ 34km
Ενημερώθηκε: 23/01/2021 18:47
Σχεδόν νεφελώδης
Σχεδόν νεφελώδης
 Ανεμος από Β
Ανεμος: Β 9 km/h
Θερμοκρασία: 9°C
Wind Chill: 7°C
Σημείο Δρόσου: 6°C
Υγρασία: 82%
Βαρόμετρο: 1015.6 hPa
Clouds: Σχεδόν νεφελώδης
Visibility: 16 km
Cloud details: Σχεδόν νεφελώδης 610 m
2021/01/23 16:47 KSQL 231647Z 36005KT 10SM BKN020 09/06 A2999
 
KSFO - San Francisco, California, USA
Distance from station: ΒΔ 49km
Ενημερώθηκε: 23/01/2021 18:56
Μερικώς νεφελώδης
Μερικώς νεφελώδης
 Ανεμος από ΒΑ
Ανεμος: ΒΑ 11 km/h
Θερμοκρασία: 11°C
Σημείο Δρόσου: 5°C
Υγρασία: 67%
Βαρόμετρο: 1015.2 hPa
Clouds: Μερικώς νεφελώδης
Visibility: 16 km
Cloud details: Few Clouds 335 m
Μερικώς νεφελώδης 640 m
Μερικώς νεφελώδης 6096 m
2021/01/23 16:56 KSFO 231656Z 05006KT 10SM FEW011 SCT021 SCT200 11/05 A2998 RMK AO2 SLP152 T01060050 $
KE16 - San Martin, California, USA
Distance from station: ΑΝΑ 43km
Ενημερώθηκε: 23/01/2021 18:55
Μερικώς νεφελώδης
Μερικώς νεφελώδης
 Ανεμος από ΒΒΔ
Ανεμος: ΒΒΔ 13 km/h
Θερμοκρασία: 6°C
Wind Chill: 3°C
Σημείο Δρόσου: 5°C
Υγρασία: 93%
Βαρόμετρο: 1015.2 hPa
Clouds: Μερικώς νεφελώδης
Visibility: 16 km
Cloud details: Μερικώς νεφελώδης 244 m
2021/01/23 16:55 KE16 231655Z AUTO 34007KT 10SM SCT008 06/05 A2998 RMK AO2
 
KWVI - Watsonville, California, USA
Distance from station: ΝΝΑ 44km
Ενημερώθηκε: 23/01/2021 18:53
Αίθριος
Αίθριος
 Ανεμος από calm
Ανεμος: Απνοια
Θερμοκρασία: 8°C
Σημείο Δρόσου: 6°C
Υγρασία: 87%
Βαρόμετρο: 1014.9 hPa
Clouds: Αίθριος
Visibility: 16 km
2021/01/23 16:53 KWVI 231653Z AUTO 00000KT 10SM CLR 08/06 A2997 RMK AO2 SLP148 T00780056
KHAF - Half Moon Bay, California, USA
Distance from station: ΔΒΔ 50km
Ενημερώθηκε: 23/01/2021 18:55
Μερικώς νεφελώδης
Μερικώς νεφελώδης
 
Θερμοκρασία: 9°C
Σημείο Δρόσου: 5°C
Υγρασία: 76%
Βαρόμετρο: 1015.6 hPa
Clouds: Μερικώς νεφελώδης
Visibility: 16 km
Cloud details: Μερικώς νεφελώδης 610 m
2021/01/23 16:55 KHAF 231655Z AUTO 10SM SCT020 09/05 A2999 RMK AO2
 
KHWD - Hayward, California, USA
Distance from station: Β 44km
Ενημερώθηκε: 23/01/2021 18:54
Μερικώς νεφελώδης
Μερικώς νεφελώδης
 Ανεμος από calm
Ανεμος: Απνοια
Θερμοκρασία: 9°C
Σημείο Δρόσου: 7°C
Υγρασία: 87%
Βαρόμετρο: 1014.9 hPa
Clouds: Μερικώς νεφελώδης
Visibility: 16 km
Cloud details: Μερικώς νεφελώδης 518 m
2021/01/23 16:54 KHWD 231654Z 00000KT 10SM SCT017 09/07 A2997 RMK AO2 SLP160 T00940067
KLVK - Livermore, California, USA
Distance from station: ΒΒΑ 51km
Ενημερώθηκε: 23/01/2021 18:53
Mist, Σχεδόν νεφελώδης
Mist, Σχεδόν νεφελώδης
 Ανεμος από calm
Ανεμος: Απνοια
Θερμοκρασία: 6°C
Σημείο Δρόσου: 6°C
Υγρασία: 100%
Βαρόμετρο: 1014.9 hPa
Περίληψη: Mist
Clouds: Σχεδόν νεφελώδης
Visibility: 4 km
Cloud details: Σχεδόν νεφελώδης 549 m
Σχεδόν νεφελώδης 701 m
2021/01/23 16:53 KLVK 231653Z 00000KT 2 1/2SM BR BKN018 BKN023 06/06 A2997 RMK AO2 SLP150 T00610056